sensor_id;sensor_type;location;lat;lon;timestamp;P1;durP1;ratioP1;P2;durP2;ratioP2
72205;SDS011;60111;48.286;7.812;2022-12-11T00:02:05;28.83;;;16.60;;
72205;SDS011;60111;48.286;7.812;2022-12-11T00:04:38;29.50;;;16.95;;
72205;SDS011;60111;48.286;7.812;2022-12-11T00:07:10;30.52;;;16.87;;
72205;SDS011;60111;48.286;7.812;2022-12-11T00:09:43;34.08;;;18.05;;
72205;SDS011;60111;48.286;7.812;2022-12-11T00:12:15;35.33;;;20.10;;
72205;SDS011;60111;48.286;7.812;2022-12-11T00:14:48;30.65;;;18.05;;
72205;SDS011;60111;48.286;7.812;2022-12-11T00:17:20;32.00;;;17.55;;
72205;SDS011;60111;48.286;7.812;2022-12-11T00:19:53;29.50;;;15.90;;
72205;SDS011;60111;48.286;7.812;2022-12-11T00:22:26;27.67;;;15.88;;
72205;SDS011;60111;48.286;7.812;2022-12-11T00:25:00;26.62;;;15.85;;
72205;SDS011;60111;48.286;7.812;2022-12-11T00:27:32;25.72;;;15.23;;
72205;SDS011;60111;48.286;7.812;2022-12-11T00:30:05;32.17;;;16.32;;
72205;SDS011;60111;48.286;7.812;2022-12-11T00:32:38;30.10;;;17.75;;
72205;SDS011;60111;48.286;7.812;2022-12-11T00:35:12;24.73;;;16.10;;
72205;SDS011;60111;48.286;7.812;2022-12-11T00:37:44;28.02;;;17.02;;
72205;SDS011;60111;48.286;7.812;2022-12-11T00:40:17;26.20;;;15.60;;
72205;SDS011;60111;48.286;7.812;2022-12-11T00:42:49;27.45;;;16.25;;
72205;SDS011;60111;48.286;7.812;2022-12-11T00:45:22;28.00;;;16.73;;
72205;SDS011;60111;48.286;7.812;2022-12-11T00:47:54;27.40;;;16.40;;
72205;SDS011;60111;48.286;7.812;2022-12-11T00:50:27;31.10;;;17.37;;
72205;SDS011;60111;48.286;7.812;2022-12-11T00:52:59;31.05;;;18.75;;
72205;SDS011;60111;48.286;7.812;2022-12-11T00:55:36;27.40;;;16.52;;
72205;SDS011;60111;48.286;7.812;2022-12-11T00:58:10;33.25;;;18.05;;
72205;SDS011;60111;48.286;7.812;2022-12-11T01:00:43;32.63;;;19.07;;
72205;SDS011;60111;48.286;7.812;2022-12-11T01:03:16;32.38;;;18.50;;
72205;SDS011;60111;48.286;7.812;2022-12-11T01:05:56;32.67;;;19.65;;
72205;SDS011;60111;48.286;7.812;2022-12-11T01:08:25;31.90;;;18.62;;
72205;SDS011;60111;48.286;7.812;2022-12-11T01:11:05;32.20;;;18.92;;
72205;SDS011;60111;48.286;7.812;2022-12-11T01:13:39;29.92;;;16.90;;
72205;SDS011;60111;48.286;7.812;2022-12-11T01:16:13;25.82;;;15.63;;
72205;SDS011;60111;48.286;7.812;2022-12-11T01:18:46;29.00;;;16.20;;
72205;SDS011;60111;48.286;7.812;2022-12-11T01:21:18;24.23;;;14.90;;
72205;SDS011;60111;48.286;7.812;2022-12-11T01:23:51;25.12;;;15.15;;
72205;SDS011;60111;48.286;7.812;2022-12-11T01:26:24;27.93;;;16.70;;
72205;SDS011;60111;48.286;7.812;2022-12-11T01:28:57;26.00;;;15.03;;
72205;SDS011;60111;48.286;7.812;2022-12-11T01:31:30;33.80;;;18.87;;
72205;SDS011;60111;48.286;7.812;2022-12-11T01:34:03;30.60;;;17.87;;
72205;SDS011;60111;48.286;7.812;2022-12-11T01:36:36;30.68;;;17.85;;
72205;SDS011;60111;48.286;7.812;2022-12-11T01:39:08;36.60;;;20.37;;
72205;SDS011;60111;48.286;7.812;2022-12-11T01:41:41;31.95;;;19.82;;
72205;SDS011;60111;48.286;7.812;2022-12-11T01:46:49;27.52;;;16.50;;
72205;SDS011;60111;48.286;7.812;2022-12-11T01:49:22;27.15;;;16.62;;
72205;SDS011;60111;48.286;7.812;2022-12-11T01:51:59;25.80;;;15.58;;
72205;SDS011;60111;48.286;7.812;2022-12-11T01:54:34;27.00;;;16.50;;
72205;SDS011;60111;48.286;7.812;2022-12-11T01:57:07;31.12;;;16.90;;
72205;SDS011;60111;48.286;7.812;2022-12-11T01:59:42;25.25;;;15.65;;
72205;SDS011;60111;48.286;7.812;2022-12-11T02:02:18;26.70;;;16.27;;
72205;SDS011;60111;48.286;7.812;2022-12-11T02:05:00;28.95;;;16.32;;
72205;SDS011;60111;48.286;7.812;2022-12-11T02:13:12;25.77;;;15.20;;
72205;SDS011;60111;48.286;7.812;2022-12-11T02:16:09;27.58;;;15.53;;
72205;SDS011;60111;48.286;7.812;2022-12-11T02:19:00;26.70;;;15.87;;
72205;SDS011;60111;48.286;7.812;2022-12-11T02:21:41;29.77;;;17.67;;
72205;SDS011;60111;48.286;7.812;2022-12-11T02:27:13;28.07;;;16.00;;
72205;SDS011;60111;48.286;7.812;2022-12-11T02:29:50;23.65;;;15.03;;
72205;SDS011;60111;48.286;7.812;2022-12-11T02:32:33;26.62;;;15.60;;
72205;SDS011;60111;48.286;7.812;2022-12-11T02:37:45;26.68;;;15.78;;
72205;SDS011;60111;48.286;7.812;2022-12-11T02:40:20;25.52;;;15.38;;
72205;SDS011;60111;48.286;7.812;2022-12-11T02:42:54;26.12;;;15.38;;
72205;SDS011;60111;48.286;7.812;2022-12-11T02:45:30;22.93;;;14.10;;
72205;SDS011;60111;48.286;7.812;2022-12-11T02:50:41;20.30;;;11.30;;
72205;SDS011;60111;48.286;7.812;2022-12-11T02:53:16;30.82;;;14.95;;
72205;SDS011;60111;48.286;7.812;2022-12-11T02:56:00;26.48;;;15.88;;
72205;SDS011;60111;48.286;7.812;2022-12-11T02:58:27;27.00;;;15.32;;
72205;SDS011;60111;48.286;7.812;2022-12-11T03:01:02;30.43;;;16.87;;
72205;SDS011;60111;48.286;7.812;2022-12-11T03:03:35;27.76;;;15.50;;
72205;SDS011;60111;48.286;7.812;2022-12-11T03:06:09;27.35;;;15.65;;
72205;SDS011;60111;48.286;7.812;2022-12-11T03:08:44;27.17;;;16.35;;
72205;SDS011;60111;48.286;7.812;2022-12-11T03:11:16;27.13;;;15.97;;
72205;SDS011;60111;48.286;7.812;2022-12-11T03:13:49;27.45;;;15.55;;
72205;SDS011;60111;48.286;7.812;2022-12-11T03:16:28;26.15;;;14.33;;
72205;SDS011;60111;48.286;7.812;2022-12-11T03:19:18;33.78;;;20.12;;
72205;SDS011;60111;48.286;7.812;2022-12-11T03:21:58;32.45;;;18.40;;
72205;SDS011;60111;48.286;7.812;2022-12-11T03:24:34;32.45;;;19.77;;
72205;SDS011;60111;48.286;7.812;2022-12-11T03:27:27;30.70;;;17.98;;
72205;SDS011;60111;48.286;7.812;2022-12-11T03:30:12;27.33;;;16.03;;
72205;SDS011;60111;48.286;7.812;2022-12-11T03:32:47;27.80;;;16.90;;
72205;SDS011;60111;48.286;7.812;2022-12-11T03:35:36;28.32;;;17.90;;
72205;SDS011;60111;48.286;7.812;2022-12-11T03:38:05;27.73;;;16.90;;
72205;SDS011;60111;48.286;7.812;2022-12-11T03:40:38;25.85;;;15.65;;
72205;SDS011;60111;48.286;7.812;2022-12-11T03:43:14;26.02;;;15.30;;
72205;SDS011;60111;48.286;7.812;2022-12-11T03:45:48;30.80;;;17.42;;
72205;SDS011;60111;48.286;7.812;2022-12-11T03:48:23;28.42;;;17.07;;
72205;SDS011;60111;48.286;7.812;2022-12-11T03:50:58;29.52;;;16.35;;
72205;SDS011;60111;48.286;7.812;2022-12-11T03:53:33;25.48;;;15.25;;
72205;SDS011;60111;48.286;7.812;2022-12-11T03:56:07;27.25;;;16.30;;
72205;SDS011;60111;48.286;7.812;2022-12-11T03:58:42;25.48;;;14.73;;
72205;SDS011;60111;48.286;7.812;2022-12-11T04:01:15;27.22;;;15.70;;
72205;SDS011;60111;48.286;7.812;2022-12-11T04:03:47;32.58;;;16.55;;
72205;SDS011;60111;48.286;7.812;2022-12-11T04:06:20;25.40;;;15.53;;
72205;SDS011;60111;48.286;7.812;2022-12-11T04:08:52;29.48;;;16.82;;
72205;SDS011;60111;48.286;7.812;2022-12-11T04:11:25;27.75;;;16.37;;
72205;SDS011;60111;48.286;7.812;2022-12-11T04:14:08;31.60;;;18.23;;
72205;SDS011;60111;48.286;7.812;2022-12-11T04:17:00;28.80;;;16.50;;
72205;SDS011;60111;48.286;7.812;2022-12-11T04:19:33;31.45;;;18.32;;
72205;SDS011;60111;48.286;7.812;2022-12-11T04:22:24;43.42;;;22.42;;
72205;SDS011;60111;48.286;7.812;2022-12-11T04:25:14;49.65;;;23.52;;
72205;SDS011;60111;48.286;7.812;2022-12-11T04:27:47;44.10;;;21.37;;
72205;SDS011;60111;48.286;7.812;2022-12-11T04:30:20;36.40;;;18.75;;
72205;SDS011;60111;48.286;7.812;2022-12-11T04:32:55;34.90;;;18.50;;
72205;SDS011;60111;48.286;7.812;2022-12-11T04:35:27;28.75;;;17.02;;
72205;SDS011;60111;48.286;7.812;2022-12-11T04:40:58;28.10;;;15.50;;
72205;SDS011;60111;48.286;7.812;2022-12-11T04:43:32;26.95;;;15.03;;
72205;SDS011;60111;48.286;7.812;2022-12-11T04:46:11;28.30;;;15.90;;
72205;SDS011;60111;48.286;7.812;2022-12-11T04:48:50;31.60;;;16.95;;
72205;SDS011;60111;48.286;7.812;2022-12-11T04:51:23;30.40;;;16.50;;
72205;SDS011;60111;48.286;7.812;2022-12-11T04:53:57;26.80;;;15.20;;
72205;SDS011;60111;48.286;7.812;2022-12-11T04:56:30;31.65;;;17.50;;
72205;SDS011;60111;48.286;7.812;2022-12-11T04:59:02;30.82;;;16.95;;
72205;SDS011;60111;48.286;7.812;2022-12-11T05:01:35;28.25;;;15.75;;
72205;SDS011;60111;48.286;7.812;2022-12-11T05:04:08;32.55;;;17.42;;
72205;SDS011;60111;48.286;7.812;2022-12-11T05:06:41;28.98;;;15.93;;
72205;SDS011;60111;48.286;7.812;2022-12-11T05:09:13;29.03;;;16.13;;
72205;SDS011;60111;48.286;7.812;2022-12-11T05:11:46;27.15;;;16.20;;
72205;SDS011;60111;48.286;7.812;2022-12-11T05:14:19;29.40;;;16.82;;
72205;SDS011;60111;48.286;7.812;2022-12-11T05:16:52;29.00;;;16.60;;
72205;SDS011;60111;48.286;7.812;2022-12-11T05:19:24;29.57;;;17.20;;
72205;SDS011;60111;48.286;7.812;2022-12-11T05:21:57;29.75;;;17.02;;
72205;SDS011;60111;48.286;7.812;2022-12-11T05:24:30;26.97;;;16.30;;
72205;SDS011;60111;48.286;7.812;2022-12-11T05:27:02;30.40;;;15.98;;
72205;SDS011;60111;48.286;7.812;2022-12-11T05:29:36;28.62;;;15.96;;
72205;SDS011;60111;48.286;7.812;2022-12-11T05:32:08;29.12;;;15.80;;
72205;SDS011;60111;48.286;7.812;2022-12-11T05:34:41;27.50;;;16.32;;
72205;SDS011;60111;48.286;7.812;2022-12-11T05:37:13;28.55;;;16.23;;
72205;SDS011;60111;48.286;7.812;2022-12-11T05:39:46;28.62;;;17.07;;
72205;SDS011;60111;48.286;7.812;2022-12-11T05:42:18;30.02;;;17.73;;
72205;SDS011;60111;48.286;7.812;2022-12-11T05:44:51;30.32;;;17.85;;
72205;SDS011;60111;48.286;7.812;2022-12-11T05:47:24;28.15;;;17.15;;
72205;SDS011;60111;48.286;7.812;2022-12-11T05:49:56;32.03;;;18.55;;
72205;SDS011;60111;48.286;7.812;2022-12-11T05:52:30;31.07;;;17.67;;
72205;SDS011;60111;48.286;7.812;2022-12-11T05:55:03;26.63;;;15.97;;
72205;SDS011;60111;48.286;7.812;2022-12-11T05:57:36;29.53;;;17.87;;
72205;SDS011;60111;48.286;7.812;2022-12-11T06:00:10;25.57;;;15.75;;
72205;SDS011;60111;48.286;7.812;2022-12-11T06:02:43;28.90;;;16.37;;
72205;SDS011;60111;48.286;7.812;2022-12-11T06:05:16;29.87;;;17.63;;
72205;SDS011;60111;48.286;7.812;2022-12-11T06:07:48;31.80;;;19.15;;
72205;SDS011;60111;48.286;7.812;2022-12-11T06:10:21;25.77;;;15.48;;
72205;SDS011;60111;48.286;7.812;2022-12-11T06:12:53;28.00;;;16.48;;
72205;SDS011;60111;48.286;7.812;2022-12-11T06:15:26;28.55;;;16.55;;
72205;SDS011;60111;48.286;7.812;2022-12-11T06:17:59;27.93;;;17.42;;
72205;SDS011;60111;48.286;7.812;2022-12-11T06:20:31;27.45;;;16.90;;
72205;SDS011;60111;48.286;7.812;2022-12-11T06:23:06;25.68;;;15.90;;
72205;SDS011;60111;48.286;7.812;2022-12-11T06:25:38;24.55;;;14.43;;
72205;SDS011;60111;48.286;7.812;2022-12-11T06:28:11;29.95;;;16.60;;
72205;SDS011;60111;48.286;7.812;2022-12-11T06:30:44;27.40;;;15.83;;
72205;SDS011;60111;48.286;7.812;2022-12-11T06:33:16;33.15;;;17.52;;
72205;SDS011;60111;48.286;7.812;2022-12-11T06:35:49;25.92;;;16.30;;
72205;SDS011;60111;48.286;7.812;2022-12-11T06:38:22;30.82;;;17.37;;
72205;SDS011;60111;48.286;7.812;2022-12-11T06:40:55;30.02;;;17.50;;
72205;SDS011;60111;48.286;7.812;2022-12-11T06:43:36;31.12;;;17.30;;
72205;SDS011;60111;48.286;7.812;2022-12-11T06:46:05;28.65;;;16.93;;
72205;SDS011;60111;48.286;7.812;2022-12-11T06:48:39;37.65;;;20.55;;
72205;SDS011;60111;48.286;7.812;2022-12-11T06:51:19;38.43;;;20.73;;
72205;SDS011;60111;48.286;7.812;2022-12-11T06:53:54;43.60;;;21.00;;
72205;SDS011;60111;48.286;7.812;2022-12-11T06:56:27;35.13;;;18.33;;
72205;SDS011;60111;48.286;7.812;2022-12-11T06:58:59;31.37;;;17.85;;
72205;SDS011;60111;48.286;7.812;2022-12-11T07:01:32;36.88;;;20.17;;
72205;SDS011;60111;48.286;7.812;2022-12-11T07:04:05;35.10;;;20.30;;
72205;SDS011;60111;48.286;7.812;2022-12-11T07:06:39;39.48;;;22.48;;
72205;SDS011;60111;48.286;7.812;2022-12-11T07:09:12;37.40;;;20.17;;
72205;SDS011;60111;48.286;7.812;2022-12-11T07:11:44;35.03;;;19.42;;
72205;SDS011;60111;48.286;7.812;2022-12-11T07:14:18;39.38;;;22.10;;
72205;SDS011;60111;48.286;7.812;2022-12-11T07:16:51;39.80;;;22.17;;
72205;SDS011;60111;48.286;7.812;2022-12-11T07:19:24;39.03;;;22.67;;
72205;SDS011;60111;48.286;7.812;2022-12-11T07:21:57;40.92;;;22.30;;
72205;SDS011;60111;48.286;7.812;2022-12-11T07:24:29;38.98;;;20.97;;
72205;SDS011;60111;48.286;7.812;2022-12-11T07:27:03;33.00;;;19.75;;
72205;SDS011;60111;48.286;7.812;2022-12-11T07:29:36;33.30;;;20.10;;
72205;SDS011;60111;48.286;7.812;2022-12-11T07:32:08;36.75;;;19.77;;
72205;SDS011;60111;48.286;7.812;2022-12-11T07:34:41;39.67;;;22.30;;
72205;SDS011;60111;48.286;7.812;2022-12-11T07:37:14;43.38;;;24.02;;
72205;SDS011;60111;48.286;7.812;2022-12-11T07:39:46;45.35;;;24.85;;
72205;SDS011;60111;48.286;7.812;2022-12-11T07:42:19;50.25;;;26.40;;
72205;SDS011;60111;48.286;7.812;2022-12-11T07:44:51;42.13;;;24.70;;
72205;SDS011;60111;48.286;7.812;2022-12-11T07:47:24;42.58;;;23.30;;
72205;SDS011;60111;48.286;7.812;2022-12-11T07:49:57;41.45;;;23.92;;
72205;SDS011;60111;48.286;7.812;2022-12-11T07:52:29;39.80;;;22.87;;
72205;SDS011;60111;48.286;7.812;2022-12-11T07:55:04;41.10;;;23.67;;
72205;SDS011;60111;48.286;7.812;2022-12-11T07:57:37;41.58;;;22.35;;
72205;SDS011;60111;48.286;7.812;2022-12-11T08:00:10;37.13;;;21.12;;
72205;SDS011;60111;48.286;7.812;2022-12-11T08:02:43;45.38;;;24.02;;
72205;SDS011;60111;48.286;7.812;2022-12-11T08:05:16;38.78;;;21.40;;
72205;SDS011;60111;48.286;7.812;2022-12-11T08:07:48;42.50;;;22.93;;
72205;SDS011;60111;48.286;7.812;2022-12-11T08:10:21;39.50;;;22.93;;
72205;SDS011;60111;48.286;7.812;2022-12-11T08:12:54;38.50;;;21.97;;
72205;SDS011;60111;48.286;7.812;2022-12-11T08:15:26;37.50;;;20.90;;
72205;SDS011;60111;48.286;7.812;2022-12-11T08:17:59;35.63;;;19.32;;
72205;SDS011;60111;48.286;7.812;2022-12-11T08:20:31;39.88;;;21.17;;
72205;SDS011;60111;48.286;7.812;2022-12-11T08:23:04;41.00;;;20.40;;
72205;SDS011;60111;48.286;7.812;2022-12-11T08:25:36;39.90;;;20.43;;
72205;SDS011;60111;48.286;7.812;2022-12-11T08:28:09;35.70;;;19.37;;
72205;SDS011;60111;48.286;7.812;2022-12-11T08:30:41;45.98;;;23.57;;
72205;SDS011;60111;48.286;7.812;2022-12-11T08:33:14;45.50;;;23.18;;
72205;SDS011;60111;48.286;7.812;2022-12-11T08:35:48;44.90;;;22.02;;
72205;SDS011;60111;48.286;7.812;2022-12-11T08:38:21;44.85;;;22.48;;
72205;SDS011;60111;48.286;7.812;2022-12-11T08:40:53;39.30;;;20.85;;
72205;SDS011;60111;48.286;7.812;2022-12-11T08:43:26;49.08;;;23.42;;
72205;SDS011;60111;48.286;7.812;2022-12-11T08:45:59;44.50;;;23.95;;
72205;SDS011;60111;48.286;7.812;2022-12-11T08:48:32;45.60;;;22.85;;
72205;SDS011;60111;48.286;7.812;2022-12-11T08:51:07;44.77;;;22.82;;
72205;SDS011;60111;48.286;7.812;2022-12-11T08:53:41;46.48;;;23.45;;
72205;SDS011;60111;48.286;7.812;2022-12-11T08:56:17;43.42;;;22.32;;
72205;SDS011;60111;48.286;7.812;2022-12-11T08:58:51;48.55;;;23.98;;
72205;SDS011;60111;48.286;7.812;2022-12-11T09:01:25;49.55;;;25.23;;
72205;SDS011;60111;48.286;7.812;2022-12-11T09:03:58;52.30;;;27.60;;
72205;SDS011;60111;48.286;7.812;2022-12-11T09:06:31;49.75;;;26.15;;
72205;SDS011;60111;48.286;7.812;2022-12-11T09:09:04;50.10;;;25.80;;
72205;SDS011;60111;48.286;7.812;2022-12-11T09:11:37;49.85;;;25.77;;
72205;SDS011;60111;48.286;7.812;2022-12-11T09:14:09;49.98;;;24.63;;
72205;SDS011;60111;48.286;7.812;2022-12-11T09:16:42;48.73;;;25.30;;
72205;SDS011;60111;48.286;7.812;2022-12-11T09:19:15;43.75;;;22.90;;
72205;SDS011;60111;48.286;7.812;2022-12-11T09:21:47;48.28;;;23.75;;
72205;SDS011;60111;48.286;7.812;2022-12-11T09:24:20;48.10;;;24.45;;
72205;SDS011;60111;48.286;7.812;2022-12-11T09:26:52;46.25;;;23.15;;
72205;SDS011;60111;48.286;7.812;2022-12-11T09:29:25;44.07;;;22.63;;
72205;SDS011;60111;48.286;7.812;2022-12-11T09:31:58;42.27;;;22.77;;
72205;SDS011;60111;48.286;7.812;2022-12-11T09:34:30;44.77;;;23.77;;
72205;SDS011;60111;48.286;7.812;2022-12-11T09:37:03;45.70;;;24.77;;
72205;SDS011;60111;48.286;7.812;2022-12-11T09:39:36;41.50;;;22.36;;
72205;SDS011;60111;48.286;7.812;2022-12-11T09:42:24;38.63;;;20.57;;
72205;SDS011;60111;48.286;7.812;2022-12-11T09:45:01;46.02;;;23.65;;
72205;SDS011;60111;48.286;7.812;2022-12-11T09:47:37;43.33;;;23.30;;
72205;SDS011;60111;48.286;7.812;2022-12-11T09:50:14;44.95;;;23.05;;
72205;SDS011;60111;48.286;7.812;2022-12-11T09:55:53;42.43;;;22.45;;
72205;SDS011;60111;48.286;7.812;2022-12-11T10:04:33;45.73;;;25.65;;
72205;SDS011;60111;48.286;7.812;2022-12-11T10:07:25;50.43;;;26.00;;
72205;SDS011;60111;48.286;7.812;2022-12-11T10:12:53;48.13;;;24.17;;
72205;SDS011;60111;48.286;7.812;2022-12-11T10:15:39;40.92;;;23.52;;
72205;SDS011;60111;48.286;7.812;2022-12-11T10:18:23;42.53;;;22.55;;
72205;SDS011;60111;48.286;7.812;2022-12-11T10:21:00;38.08;;;19.50;;
72205;SDS011;60111;48.286;7.812;2022-12-11T10:23:43;41.48;;;22.62;;
72205;SDS011;60111;48.286;7.812;2022-12-11T10:26:27;37.25;;;19.35;;
72205;SDS011;60111;48.286;7.812;2022-12-11T10:29:00;42.83;;;22.57;;
72205;SDS011;60111;48.286;7.812;2022-12-11T10:37:05;35.75;;;20.43;;
72205;SDS011;60111;48.286;7.812;2022-12-11T10:39:37;34.67;;;19.98;;
72205;SDS011;60111;48.286;7.812;2022-12-11T10:42:15;38.80;;;20.95;;
72205;SDS011;60111;48.286;7.812;2022-12-11T10:45:02;36.10;;;19.70;;
72205;SDS011;60111;48.286;7.812;2022-12-11T10:47:36;33.02;;;18.87;;
72205;SDS011;60111;48.286;7.812;2022-12-11T10:50:31;32.63;;;18.82;;
72205;SDS011;60111;48.286;7.812;2022-12-11T10:52:53;31.12;;;19.07;;
72205;SDS011;60111;48.286;7.812;2022-12-11T10:55:28;32.78;;;19.50;;
72205;SDS011;60111;48.286;7.812;2022-12-11T10:58:13;36.05;;;19.55;;
72205;SDS011;60111;48.286;7.812;2022-12-11T11:01:01;36.50;;;19.17;;
72205;SDS011;60111;48.286;7.812;2022-12-11T11:03:42;31.73;;;18.67;;
72205;SDS011;60111;48.286;7.812;2022-12-11T11:06:14;31.80;;;18.50;;
72205;SDS011;60111;48.286;7.812;2022-12-11T11:08:50;30.08;;;17.67;;
72205;SDS011;60111;48.286;7.812;2022-12-11T11:11:28;34.60;;;19.30;;
72205;SDS011;60111;48.286;7.812;2022-12-11T11:14:11;30.77;;;18.75;;
72205;SDS011;60111;48.286;7.812;2022-12-11T11:16:38;32.98;;;18.92;;
72205;SDS011;60111;48.286;7.812;2022-12-11T11:19:29;32.53;;;18.75;;
72205;SDS011;60111;48.286;7.812;2022-12-11T11:22:06;29.82;;;17.45;;
72205;SDS011;60111;48.286;7.812;2022-12-11T11:24:56;28.04;;;17.26;;
72205;SDS011;60111;48.286;7.812;2022-12-11T11:27:34;29.67;;;17.80;;
72205;SDS011;60111;48.286;7.812;2022-12-11T11:30:19;29.50;;;17.55;;
72205;SDS011;60111;48.286;7.812;2022-12-11T11:32:57;29.72;;;18.05;;
72205;SDS011;60111;48.286;7.812;2022-12-11T11:35:31;28.85;;;17.82;;
72205;SDS011;60111;48.286;7.812;2022-12-11T11:38:20;32.17;;;18.80;;
72205;SDS011;60111;48.286;7.812;2022-12-11T11:41:24;30.90;;;18.67;;
72205;SDS011;60111;48.286;7.812;2022-12-11T11:43:44;28.87;;;17.45;;
72205;SDS011;60111;48.286;7.812;2022-12-11T11:46:27;29.10;;;18.30;;
72205;SDS011;60111;48.286;7.812;2022-12-11T11:52:16;33.35;;;19.15;;
72205;SDS011;60111;48.286;7.812;2022-12-11T11:57:42;35.78;;;19.85;;
72205;SDS011;60111;48.286;7.812;2022-12-11T12:00:23;33.55;;;18.37;;
72205;SDS011;60111;48.286;7.812;2022-12-11T12:03:04;36.53;;;20.40;;
72205;SDS011;60111;48.286;7.812;2022-12-11T12:05:44;33.13;;;19.42;;
72205;SDS011;60111;48.286;7.812;2022-12-11T12:11:39;39.33;;;21.02;;
72205;SDS011;60111;48.286;7.812;2022-12-11T12:14:17;38.95;;;21.80;;
72205;SDS011;60111;48.286;7.812;2022-12-11T12:17:04;38.42;;;20.37;;
72205;SDS011;60111;48.286;7.812;2022-12-11T12:22:50;41.68;;;22.67;;
72205;SDS011;60111;48.286;7.812;2022-12-11T12:34:04;39.15;;;22.45;;
72205;SDS011;60111;48.286;7.812;2022-12-11T12:40:01;39.30;;;21.52;;
72205;SDS011;60111;48.286;7.812;2022-12-11T12:42:50;42.57;;;21.93;;
72205;SDS011;60111;48.286;7.812;2022-12-11T12:45:53;39.20;;;21.87;;
72205;SDS011;60111;48.286;7.812;2022-12-11T12:48:26;48.58;;;24.63;;
72205;SDS011;60111;48.286;7.812;2022-12-11T12:50:59;37.98;;;21.37;;
72205;SDS011;60111;48.286;7.812;2022-12-11T12:53:33;40.17;;;21.77;;
72205;SDS011;60111;48.286;7.812;2022-12-11T12:56:08;49.05;;;26.05;;
72205;SDS011;60111;48.286;7.812;2022-12-11T12:58:43;42.13;;;23.00;;
72205;SDS011;60111;48.286;7.812;2022-12-11T13:09:14;39.00;;;20.30;;
72205;SDS011;60111;48.286;7.812;2022-12-11T13:11:54;43.10;;;22.30;;
72205;SDS011;60111;48.286;7.812;2022-12-11T13:14:33;40.43;;;21.83;;
72205;SDS011;60111;48.286;7.812;2022-12-11T13:17:05;41.15;;;22.05;;
72205;SDS011;60111;48.286;7.812;2022-12-11T13:19:39;42.17;;;21.52;;
72205;SDS011;60111;48.286;7.812;2022-12-11T13:30:05;43.48;;;23.32;;
72205;SDS011;60111;48.286;7.812;2022-12-11T13:32:40;39.65;;;22.48;;
72205;SDS011;60111;48.286;7.812;2022-12-11T13:35:15;39.60;;;21.77;;
72205;SDS011;60111;48.286;7.812;2022-12-11T13:37:49;42.50;;;22.20;;
72205;SDS011;60111;48.286;7.812;2022-12-11T13:40:26;46.08;;;22.77;;
72205;SDS011;60111;48.286;7.812;2022-12-11T13:43:15;49.50;;;24.85;;
72205;SDS011;60111;48.286;7.812;2022-12-11T13:45:53;46.60;;;23.20;;
72205;SDS011;60111;48.286;7.812;2022-12-11T13:48:28;43.65;;;24.00;;
72205;SDS011;60111;48.286;7.812;2022-12-11T13:51:02;43.75;;;22.80;;
72205;SDS011;60111;48.286;7.812;2022-12-11T13:53:37;44.67;;;23.12;;
72205;SDS011;60111;48.286;7.812;2022-12-11T13:56:17;44.83;;;23.73;;
72205;SDS011;60111;48.286;7.812;2022-12-11T13:58:51;48.13;;;24.50;;
72205;SDS011;60111;48.286;7.812;2022-12-11T14:01:26;42.93;;;22.62;;
72205;SDS011;60111;48.286;7.812;2022-12-11T14:04:01;44.88;;;22.58;;
72205;SDS011;60111;48.286;7.812;2022-12-11T14:06:41;43.10;;;23.22;;
72205;SDS011;60111;48.286;7.812;2022-12-11T14:09:15;43.83;;;23.50;;
72205;SDS011;60111;48.286;7.812;2022-12-11T14:11:50;42.27;;;23.40;;
72205;SDS011;60111;48.286;7.812;2022-12-11T14:14:26;46.10;;;24.90;;
72205;SDS011;60111;48.286;7.812;2022-12-11T14:16:59;42.45;;;24.43;;
72205;SDS011;60111;48.286;7.812;2022-12-11T14:19:32;48.83;;;27.80;;
72205;SDS011;60111;48.286;7.812;2022-12-11T14:22:05;45.45;;;24.72;;
72205;SDS011;60111;48.286;7.812;2022-12-11T14:24:46;42.43;;;22.82;;
72205;SDS011;60111;48.286;7.812;2022-12-11T14:27:14;43.70;;;25.25;;
72205;SDS011;60111;48.286;7.812;2022-12-11T14:29:48;41.92;;;23.22;;
72205;SDS011;60111;48.286;7.812;2022-12-11T14:32:30;38.67;;;21.95;;
72205;SDS011;60111;48.286;7.812;2022-12-11T14:35:04;43.33;;;24.77;;
72205;SDS011;60111;48.286;7.812;2022-12-11T14:37:38;38.13;;;20.95;;
72205;SDS011;60111;48.286;7.812;2022-12-11T14:40:15;37.45;;;20.95;;
72205;SDS011;60111;48.286;7.812;2022-12-11T14:42:49;39.33;;;22.42;;
72205;SDS011;60111;48.286;7.812;2022-12-11T14:45:32;41.60;;;22.23;;
72205;SDS011;60111;48.286;7.812;2022-12-11T14:48:16;41.13;;;23.23;;
72205;SDS011;60111;48.286;7.812;2022-12-11T14:50:44;43.63;;;22.90;;
72205;SDS011;60111;48.286;7.812;2022-12-11T14:53:22;39.67;;;21.25;;
72205;SDS011;60111;48.286;7.812;2022-12-11T14:55:57;39.80;;;22.22;;
72205;SDS011;60111;48.286;7.812;2022-12-11T14:58:36;35.92;;;20.17;;
72205;SDS011;60111;48.286;7.812;2022-12-11T15:01:21;38.55;;;21.82;;
72205;SDS011;60111;48.286;7.812;2022-12-11T15:04:03;38.45;;;21.15;;
72205;SDS011;60111;48.286;7.812;2022-12-11T15:06:45;39.03;;;21.90;;
72205;SDS011;60111;48.286;7.812;2022-12-11T15:09:20;42.35;;;23.20;;
72205;SDS011;60111;48.286;7.812;2022-12-11T15:12:08;38.20;;;20.60;;
72205;SDS011;60111;48.286;7.812;2022-12-11T15:14:50;37.38;;;21.15;;
72205;SDS011;60111;48.286;7.812;2022-12-11T15:17:24;39.50;;;24.20;;
72205;SDS011;60111;48.286;7.812;2022-12-11T15:20:04;37.10;;;23.60;;
72205;SDS011;60111;48.286;7.812;2022-12-11T15:22:34;42.40;;;23.53;;
72205;SDS011;60111;48.286;7.812;2022-12-11T15:25:15;38.25;;;22.10;;
72205;SDS011;60111;48.286;7.812;2022-12-11T15:27:43;38.63;;;22.48;;
72205;SDS011;60111;48.286;7.812;2022-12-11T15:33:02;33.92;;;19.67;;
72205;SDS011;60111;48.286;7.812;2022-12-11T15:35:38;40.25;;;23.45;;
72205;SDS011;60111;48.286;7.812;2022-12-11T15:38:31;39.88;;;23.47;;
72205;SDS011;60111;48.286;7.812;2022-12-11T15:41:02;36.15;;;20.95;;
72205;SDS011;60111;48.286;7.812;2022-12-11T15:43:35;35.33;;;20.40;;
72205;SDS011;60111;48.286;7.812;2022-12-11T15:46:08;25.10;;;14.73;;
72205;SDS011;60111;48.286;7.812;2022-12-11T15:48:41;39.80;;;23.73;;
72205;SDS011;60111;48.286;7.812;2022-12-11T15:51:14;38.00;;;22.00;;
72205;SDS011;60111;48.286;7.812;2022-12-11T15:53:47;38.40;;;21.70;;
72205;SDS011;60111;48.286;7.812;2022-12-11T15:56:20;35.78;;;20.70;;
72205;SDS011;60111;48.286;7.812;2022-12-11T15:58:52;36.23;;;19.75;;
72205;SDS011;60111;48.286;7.812;2022-12-11T16:01:26;35.90;;;20.85;;
72205;SDS011;60111;48.286;7.812;2022-12-11T16:03:59;33.70;;;18.45;;
72205;SDS011;60111;48.286;7.812;2022-12-11T16:06:31;37.08;;;20.88;;
72205;SDS011;60111;48.286;7.812;2022-12-11T16:09:04;41.02;;;23.05;;
72205;SDS011;60111;48.286;7.812;2022-12-11T16:11:37;44.18;;;23.20;;
72205;SDS011;60111;48.286;7.812;2022-12-11T16:14:09;37.80;;;20.10;;
72205;SDS011;60111;48.286;7.812;2022-12-11T16:16:42;43.13;;;23.87;;
72205;SDS011;60111;48.286;7.812;2022-12-11T16:19:15;44.20;;;24.57;;
72205;SDS011;60111;48.286;7.812;2022-12-11T16:21:47;43.35;;;22.87;;
72205;SDS011;60111;48.286;7.812;2022-12-11T16:24:20;38.60;;;20.88;;
72205;SDS011;60111;48.286;7.812;2022-12-11T16:26:52;37.28;;;21.55;;
72205;SDS011;60111;48.286;7.812;2022-12-11T16:29:25;39.50;;;21.33;;